Time;durP1;ratioP1;P1;durP2;ratioP2;P2;SDS_P1;SDS_P2;PMS_P1;PMS_P2;Temp;Humidity;BMP_temperature;BMP_pressure;BME280_temperature;BME280_humidity;BME280_pressure;Samples;Min_cycle;Max_cycle;Signal;HPM_P1;HPM_P2
2023/08/03 00:01:32;;;;;;;0.50;0.20;;;24.40;54.90;;;;;;5038151;28;20032;-65
2023/08/03 00:04:00;;;;;;;0.50;0.20;;;24.30;54.80;;;;;;5032240;28;20037;-63
2023/08/03 00:06:27;;;;;;;0.45;0.20;;;24.40;54.90;;;;;;5038381;28;20762;-62
2023/08/03 00:08:54;;;;;;;0.60;0.30;;;24.40;54.90;;;;;;5037528;28;20067;-61
2023/08/03 00:11:20;;;;;;;0.98;0.43;;;24.40;54.90;;;;;;5038512;28;20025;-63
2023/08/03 00:13:46;;;;;;;0.70;0.30;;;24.30;54.90;;;;;;5042629;28;20092;-62
2023/08/03 00:16:12;;;;;;;0.80;0.38;;;24.30;54.90;;;;;;5023691;28;20029;-61
2023/08/03 00:18:37;;;;;;;0.47;0.20;;;24.30;55.00;;;;;;5031338;28;20315;-63
2023/08/03 00:21:03;;;;;;;0.55;0.30;;;24.30;55.00;;;;;;5042428;28;20033;-66
2023/08/03 00:23:29;;;;;;;0.85;0.30;;;24.30;55.00;;;;;;5042809;28;20574;-62
2023/08/03 00:25:55;;;;;;;0.52;0.30;;;24.30;55.00;;;;;;5044919;28;20355;-66
2023/08/03 00:28:22;;;;;;;0.75;0.30;;;24.30;55.00;;;;;;5038297;28;20029;-63
2023/08/03 00:30:48;;;;;;;0.85;0.30;;;24.30;55.10;;;;;;5042292;28;20104;-62
2023/08/03 00:33:13;;;;;;;0.85;0.20;;;24.30;55.10;;;;;;5035212;28;20129;-63
2023/08/03 00:35:39;;;;;;;0.65;0.22;;;24.30;55.10;;;;;;5042228;28;20056;-62
2023/08/03 00:38:05;;;;;;;0.98;0.20;;;24.30;55.10;;;;;;5038781;28;20029;-60
2023/08/03 00:40:32;;;;;;;0.38;0.20;;;24.30;55.20;;;;;;5043407;28;20076;-63
2023/08/03 00:42:58;;;;;;;0.57;0.20;;;24.30;55.20;;;;;;5031133;28;20437;-60
2023/08/03 00:45:25;;;;;;;1.23;0.30;;;24.30;55.20;;;;;;5058919;28;20043;-60
2023/08/03 00:47:51;;;;;;;0.90;0.35;;;24.30;55.30;;;;;;5075652;28;20101;-61
2023/08/03 00:50:19;;;;;;;0.75;0.47;;;24.30;55.30;;;;;;5083701;28;20033;-61
2023/08/03 00:52:45;;;;;;;0.28;0.17;;;24.30;55.30;;;;;;5082579;28;20948;-61
2023/08/03 00:55:10;;;;;;;2.38;0.20;;;24.30;55.40;;;;;;5084109;28;20080;-61
2023/08/03 00:57:37;;;;;;;0.28;0.20;;;24.30;55.40;;;;;;5045104;28;20096;-59
2023/08/03 01:00:04;;;;;;;0.88;0.30;;;24.30;55.40;;;;;;5085721;28;20032;-61
2023/08/03 01:02:31;;;;;;;0.85;0.20;;;24.30;55.50;;;;;;5080447;28;20337;-59
2023/08/03 01:04:57;;;;;;;0.28;0.20;;;24.30;55.50;;;;;;5054605;28;20036;-61
2023/08/03 01:07:23;;;;;;;0.40;0.20;;;24.30;55.50;;;;;;5056414;28;20041;-61
2023/08/03 01:09:49;;;;;;;0.70;0.20;;;24.30;55.60;;;;;;5083008;28;20031;-60
2023/08/03 01:12:16;;;;;;;0.57;0.20;;;24.20;55.60;;;;;;5062477;28;20026;-60
2023/08/03 01:14:43;;;;;;;1.42;0.45;;;24.20;55.60;;;;;;5060458;28;20039;-61
2023/08/03 01:17:09;;;;;;;0.55;0.30;;;24.30;55.70;;;;;;5073573;28;20040;-61
2023/08/03 01:19:35;;;;;;;0.35;0.20;;;24.20;55.70;;;;;;5080218;28;20467;-60
2023/08/03 01:22:02;;;;;;;0.70;0.38;;;24.20;55.70;;;;;;5075386;28;20043;-62
2023/08/03 01:24:29;;;;;;;0.80;0.30;;;24.20;55.80;;;;;;5081384;28;20091;-62
2023/08/03 01:26:59;;;;;;;1.60;0.40;;;24.20;55.90;;;;;;5080399;28;20040;-60
2023/08/03 01:29:25;;;;;;;0.70;0.20;;;24.20;55.90;;;;;;5074151;28;20032;-61
2023/08/03 01:31:56;;;;;;;0.68;0.30;;;24.20;56.00;;;;;;5078979;28;21605;-62
2023/08/03 01:34:24;;;;;;;1.48;0.50;;;24.20;56.00;;;;;;5080017;28;20172;-61
2023/08/03 01:36:51;;;;;;;1.00;0.38;;;24.20;56.00;;;;;;5061892;28;20346;-61
2023/08/03 01:39:16;;;;;;;0.95;0.30;;;24.20;56.00;;;;;;5083316;28;20031;-62
2023/08/03 01:41:42;;;;;;;0.35;0.30;;;24.20;56.00;;;;;;5069209;28;20452;-59
2023/08/03 01:44:29;;;;;;;0.38;0.20;;;24.20;56.00;;;;;;5060975;28;20232;-60
2023/08/03 01:46:57;;;;;;;0.52;0.30;;;24.20;56.00;;;;;;5076998;28;20059;-61
2023/08/03 01:49:27;;;;;;;0.63;0.30;;;24.20;56.00;;;;;;5063723;28;20031;-61
2023/08/03 01:51:53;;;;;;;1.17;0.40;;;24.20;56.00;;;;;;5067611;28;20031;-63
2023/08/03 01:54:19;;;;;;;0.52;0.30;;;24.20;56.00;;;;;;5061730;28;20032;-61
2023/08/03 01:56:45;;;;;;;0.80;0.32;;;24.20;56.00;;;;;;5068446;28;20145;-61
2023/08/03 01:59:11;;;;;;;0.30;0.20;;;24.20;56.00;;;;;;5066962;28;20048;-60
2023/08/03 02:01:38;;;;;;;0.52;0.20;;;24.20;56.10;;;;;;5069119;28;20478;-63
2023/08/03 02:04:04;;;;;;;0.80;0.30;;;24.20;56.10;;;;;;5078499;28;20016;-62
2023/08/03 02:06:31;;;;;;;0.98;0.40;;;24.20;56.20;;;;;;5059304;28;20060;-60
2023/08/03 02:08:56;;;;;;;0.85;0.57;;;24.20;56.20;;;;;;5075120;28;20442;-61
2023/08/03 02:11:26;;;;;;;1.15;0.40;;;24.10;56.30;;;;;;5082118;28;20021;-59
2023/08/03 02:13:52;;;;;;;0.80;0.47;;;24.20;56.40;;;;;;5068350;28;20053;-60
2023/08/03 02:16:18;;;;;;;0.45;0.30;;;24.20;56.40;;;;;;5067869;28;20028;-61
2023/08/03 02:18:44;;;;;;;1.05;0.40;;;24.10;56.40;;;;;;5072162;28;20021;-61
2023/08/03 02:21:10;;;;;;;1.55;0.40;;;24.20;56.50;;;;;;5088129;28;20070;-61
2023/08/03 02:23:36;;;;;;;0.95;0.35;;;24.20;56.60;;;;;;5065164;28;20023;-60
2023/08/03 02:26:04;;;;;;;0.80;0.40;;;24.10;56.60;;;;;;5048702;28;20176;-60
2023/08/03 02:28:31;;;;;;;1.27;0.38;;;24.20;56.70;;;;;;5085888;28;20363;-60
2023/08/03 02:30:57;;;;;;;1.20;0.30;;;24.10;56.70;;;;;;5056829;28;20032;-61
2023/08/03 02:33:26;;;;;;;2.88;0.52;;;24.10;56.80;;;;;;5066800;28;20037;-61
2023/08/03 02:35:52;;;;;;;0.73;0.30;;;24.10;56.80;;;;;;5064147;28;20407;-61
2023/08/03 02:38:18;;;;;;;1.45;0.50;;;24.10;56.80;;;;;;5085773;28;20085;-61
2023/08/03 02:40:44;;;;;;;1.17;0.45;;;24.10;56.90;;;;;;5062272;28;20026;-60
2023/08/03 02:43:11;;;;;;;1.33;0.40;;;24.10;56.90;;;;;;5062821;28;20107;-62
2023/08/03 02:45:41;;;;;;;1.45;0.50;;;24.10;56.90;;;;;;5054122;28;20044;-63
2023/08/03 02:48:08;;;;;;;1.25;0.60;;;24.10;57.00;;;;;;5060137;28;20043;-62
2023/08/03 02:50:34;;;;;;;1.75;0.63;;;24.10;57.00;;;;;;5063324;28;20396;-62
2023/08/03 02:53:05;;;;;;;1.48;0.30;;;24.10;57.00;;;;;;5061115;28;20400;-61
2023/08/03 02:55:31;;;;;;;1.50;0.63;;;24.10;57.00;;;;;;5061538;28;20037;-62
2023/08/03 02:57:58;;;;;;;1.27;0.50;;;24.10;57.00;;;;;;5080495;28;20056;-61
2023/08/03 03:00:25;;;;;;;1.67;0.40;;;24.10;57.10;;;;;;5060830;28;20035;-64
2023/08/03 03:02:51;;;;;;;0.98;0.68;;;24.10;57.10;;;;;;5065165;28;20140;-62
2023/08/03 03:05:22;;;;;;;2.40;0.40;;;24.10;57.10;;;;;;5058261;28;20068;-62
2023/08/03 03:07:48;;;;;;;1.25;0.55;;;24.10;57.10;;;;;;5052715;28;20143;-62
2023/08/03 03:10:14;;;;;;;0.98;0.40;;;24.10;57.20;;;;;;5060225;28;20024;-62
2023/08/03 03:12:42;;;;;;;1.17;0.30;;;24.10;57.20;;;;;;5062015;28;20167;-62
2023/08/03 03:15:09;;;;;;;1.20;0.50;;;24.10;57.20;;;;;;5061278;28;20127;-60
2023/08/03 03:17:35;;;;;;;1.30;0.60;;;24.10;57.20;;;;;;5053308;28;20044;-61
2023/08/03 03:20:03;;;;;;;1.73;0.63;;;24.10;57.20;;;;;;5059672;28;20028;-62
2023/08/03 03:22:30;;;;;;;1.17;0.60;;;24.10;57.30;;;;;;5043163;28;20530;-60
2023/08/03 03:24:56;;;;;;;1.35;0.40;;;24.10;57.30;;;;;;5060734;28;20104;-59
2023/08/03 03:27:21;;;;;;;1.42;0.43;;;24.10;57.30;;;;;;5061498;28;20119;-61
2023/08/03 03:29:52;;;;;;;1.45;0.60;;;24.00;57.30;;;;;;5062544;28;20102;-63
2023/08/03 03:32:18;;;;;;;0.70;0.40;;;24.00;57.30;;;;;;5063114;28;20404;-60
2023/08/03 03:34:44;;;;;;;0.63;0.40;;;24.10;57.40;;;;;;5065801;28;20109;-62
2023/08/03 03:37:13;;;;;;;0.80;0.50;;;24.00;57.40;;;;;;5057616;28;20024;-62
2023/08/03 03:39:40;;;;;;;0.95;0.40;;;24.00;57.40;;;;;;5046689;28;20557;-64
2023/08/03 03:42:11;;;;;;;1.38;0.50;;;24.00;57.40;;;;;;5075205;28;20021;-62
2023/08/03 03:44:37;;;;;;;0.68;0.30;;;24.10;57.50;;;;;;5064742;28;20035;-61
2023/08/03 03:47:04;;;;;;;0.57;0.30;;;24.00;57.40;;;;;;5060609;28;20032;-63
2023/08/03 03:49:34;;;;;;;0.55;0.20;;;24.00;57.40;;;;;;5062006;28;20114;-62
2023/08/03 03:52:02;;;;;;;1.33;0.40;;;24.00;57.40;;;;;;5062934;28;20035;-62
2023/08/03 03:54:28;;;;;;;0.98;0.38;;;24.00;57.40;;;;;;5060169;28;20036;-61
2023/08/03 03:56:57;;;;;;;0.50;0.28;;;24.00;57.40;;;;;;5064838;28;20028;-64
2023/08/03 03:59:24;;;;;;;0.93;0.30;;;24.00;57.40;;;;;;5063116;28;20050;-63
2023/08/03 04:01:50;;;;;;;0.95;0.30;;;24.00;57.40;;;;;;5060608;28;20017;-61
2023/08/03 04:04:16;;;;;;;0.40;0.20;;;24.00;57.40;;;;;;5067527;28;20028;-61
2023/08/03 04:06:43;;;;;;;0.63;0.40;;;24.00;57.50;;;;;;5072824;28;20338;-62
2023/08/03 04:09:09;;;;;;;0.60;0.30;;;24.00;57.50;;;;;;5076667;28;20048;-64
2023/08/03 04:11:35;;;;;;;0.60;0.30;;;24.00;57.50;;;;;;5067404;28;20076;-61
2023/08/03 04:14:01;;;;;;;0.70;0.32;;;24.00;57.50;;;;;;5068068;28;20131;-60
2023/08/03 04:16:27;;;;;;;0.52;0.30;;;24.00;57.50;;;;;;5061540;28;20027;-62
2023/08/03 04:18:53;;;;;;;1.00;0.45;;;24.00;57.60;;;;;;5057536;28;20072;-61
2023/08/03 04:21:19;;;;;;;0.68;0.20;;;24.00;57.50;;;;;;5060332;28;20023;-60
2023/08/03 04:23:45;;;;;;;0.60;0.20;;;24.00;57.50;;;;;;5063434;28;20406;-61
2023/08/03 04:26:11;;;;;;;1.00;0.30;;;24.00;57.60;;;;;;5051596;28;20047;-62
2023/08/03 04:28:37;;;;;;;1.02;0.40;;;24.00;57.60;;;;;;5054451;28;20040;-63
2023/08/03 04:31:03;;;;;;;1.05;0.40;;;24.00;57.60;;;;;;5058817;28;20099;-61
2023/08/03 04:33:30;;;;;;;0.98;0.40;;;24.00;57.60;;;;;;5058642;28;20170;-60
2023/08/03 04:36:00;;;;;;;1.88;0.50;;;24.00;57.60;;;;;;5079474;28;20032;-61
2023/08/03 04:38:30;;;;;;;1.25;0.40;;;24.00;57.60;;;;;;5058452;28;20028;-62
2023/08/03 04:41:02;;;;;;;0.90;0.40;;;24.00;57.60;;;;;;5070251;28;20028;-61
2023/08/03 04:43:31;;;;;;;0.90;0.40;;;24.00;57.70;;;;;;5051799;28;20422;-63
2023/08/03 04:45:56;;;;;;;1.17;0.50;;;24.00;58.30;;;;;;5076100;28;20048;-61
2023/08/03 04:48:22;;;;;;;0.77;0.50;;;24.00;57.70;;;;;;5076193;28;20116;-61
2023/08/03 04:50:50;;;;;;;1.63;0.52;;;24.00;57.70;;;;;;5063494;28;20067;-62
2023/08/03 04:53:18;;;;;;;0.98;0.40;;;24.00;57.70;;;;;;5062693;28;20039;-62
2023/08/03 04:55:45;;;;;;;1.15;0.57;;;23.90;57.70;;;;;;5058815;28;20043;-62
2023/08/03 04:58:11;;;;;;;0.77;0.40;;;24.00;57.70;;;;;;5063176;28;20454;-61
2023/08/03 05:00:40;;;;;;;1.35;0.40;;;24.00;57.80;;;;;;5066842;28;20028;-65
2023/08/03 05:03:06;;;;;;;0.35;0.30;;;24.00;57.80;;;;;;5058522;28;20036;-60
2023/08/03 05:05:32;;;;;;;1.50;0.73;;;23.90;57.70;;;;;;5060076;28;20036;-62
2023/08/03 05:07:58;;;;;;;1.75;0.63;;;23.90;57.80;;;;;;5056245;28;20028;-61
2023/08/03 05:10:25;;;;;;;0.65;0.32;;;24.00;57.80;;;;;;5062205;28;20024;-60
2023/08/03 05:12:51;;;;;;;1.10;0.28;;;23.90;57.80;;;;;;5066790;28;20384;-60
2023/08/03 05:15:17;;;;;;;1.65;0.50;;;23.90;57.90;;;;;;5069720;28;20139;-60
2023/08/03 05:17:46;;;;;;;0.65;0.38;;;23.90;57.80;;;;;;5061826;28;20028;-61
2023/08/03 05:20:13;;;;;;;2.28;0.45;;;23.90;57.80;;;;;;5087029;28;20056;-63
2023/08/03 05:22:39;;;;;;;1.40;0.50;;;24.00;57.90;;;;;;5057776;28;20027;-60
2023/08/03 05:25:05;;;;;;;1.70;0.60;;;23.90;57.80;;;;;;5049178;28;20024;-59
2023/08/03 05:27:31;;;;;;;1.25;0.43;;;24.00;57.90;;;;;;5084446;28;20028;-60
2023/08/03 05:29:58;;;;;;;2.38;0.52;;;23.90;57.80;;;;;;5073170;28;21440;-62
2023/08/03 05:32:27;;;;;;;1.55;0.52;;;23.90;57.80;;;;;;5073342;28;20047;-60
2023/08/03 05:34:53;;;;;;;1.08;0.40;;;23.90;57.80;;;;;;5083860;28;20100;-61
2023/08/03 05:37:19;;;;;;;0.98;0.50;;;23.90;57.80;;;;;;5086099;28;20024;-59
2023/08/03 05:39:45;;;;;;;2.63;0.65;;;23.90;57.80;;;;;;5073745;28;20407;-59
2023/08/03 05:42:14;;;;;;;2.65;0.60;;;23.90;57.80;;;;;;5086577;28;20071;-61
2023/08/03 05:44:41;;;;;;;3.00;0.52;;;23.90;57.80;;;;;;5086625;28;20031;-61
2023/08/03 05:47:10;;;;;;;2.35;0.40;;;23.90;57.90;;;;;;5081458;28;20032;-61
2023/08/03 05:49:37;;;;;;;1.73;0.68;;;23.90;57.90;;;;;;5064896;28;20104;-61
2023/08/03 05:52:03;;;;;;;2.67;0.88;;;23.90;57.90;;;;;;5066880;28;20096;-61
2023/08/03 05:54:29;;;;;;;1.35;0.50;;;23.90;57.90;;;;;;5068680;28;20032;-61
2023/08/03 05:56:55;;;;;;;2.03;0.70;;;23.90;57.90;;;;;;5077221;28;20504;-61
2023/08/03 05:59:24;;;;;;;2.47;0.80;;;23.90;57.90;;;;;;5084700;28;20043;-63
2023/08/03 06:01:52;;;;;;;3.97;0.80;;;23.90;58.00;;;;;;5077272;28;20028;-60
2023/08/03 06:04:18;;;;;;;2.42;0.80;;;23.90;58.00;;;;;;5084165;28;20039;-60
2023/08/03 06:06:45;;;;;;;2.03;0.70;;;23.90;58.00;;;;;;5075409;28;20080;-61
2023/08/03 06:09:12;;;;;;;2.13;0.75;;;23.90;58.10;;;;;;5080389;28;20038;-61
2023/08/03 06:11:39;;;;;;;4.13;0.80;;;24.00;58.10;;;;;;5084351;28;20024;-61
2023/08/03 06:14:12;;;;;;;2.63;0.82;;;23.90;58.10;;;;;;5085098;28;20043;-60
2023/08/03 06:16:39;;;;;;;3.47;1.10;;;23.90;58.10;;;;;;5080713;28;20044;-61
2023/08/03 06:19:06;;;;;;;2.35;0.90;;;23.90;58.10;;;;;;5077714;28;20109;-60
2023/08/03 06:21:32;;;;;;;2.55;0.98;;;23.90;58.20;;;;;;5084623;28;20043;-60
2023/08/03 06:23:58;;;;;;;2.63;0.90;;;23.90;58.20;;;;;;5078131;28;20347;-60
2023/08/03 06:26:26;;;;;;;2.15;0.93;;;23.90;58.20;;;;;;5084691;28;20032;-60
2023/08/03 06:28:53;;;;;;;1.90;0.95;;;23.90;58.20;;;;;;5086241;28;20043;-60
2023/08/03 06:31:34;;;;;;;2.92;1.10;;;23.90;58.20;;;;;;5083011;28;20044;-60
2023/08/03 06:34:02;;;;;;;2.75;1.10;;;23.90;58.20;;;;;;5078327;28;20430;-60
2023/08/03 06:36:29;;;;;;;3.28;1.10;;;23.90;58.20;;;;;;5082065;28;20028;-60
2023/08/03 06:38:56;;;;;;;2.30;0.88;;;23.90;58.20;;;;;;5075847;28;20028;-61
2023/08/03 06:41:26;;;;;;;1.63;0.82;;;23.90;58.20;;;;;;5080250;28;20107;-60
2023/08/03 06:43:56;;;;;;;2.10;0.88;;;23.90;58.20;;;;;;5054838;28;20340;-60
2023/08/03 06:46:24;;;;;;;3.45;1.20;;;23.90;58.20;;;;;;5074490;28;20470;-59
2023/08/03 06:48:51;;;;;;;3.75;1.15;;;23.90;58.30;;;;;;5073993;28;20067;-60
2023/08/03 06:51:17;;;;;;;2.97;1.42;;;23.90;58.30;;;;;;5074786;28;20350;-61
2023/08/03 06:53:43;;;;;;;3.92;1.10;;;23.90;58.30;;;;;;5072494;28;20081;-60
2023/08/03 06:56:09;;;;;;;2.58;1.10;;;23.90;58.30;;;;;;5072285;28;20040;-61
2023/08/03 06:58:35;;;;;;;3.22;1.02;;;23.90;58.30;;;;;;5072416;28;20031;-60
2023/08/03 07:01:01;;;;;;;1.88;0.90;;;23.90;58.20;;;;;;5070201;28;20024;-60
2023/08/03 07:03:27;;;;;;;2.80;1.08;;;23.90;58.20;;;;;;5055629;28;20028;-60
2023/08/03 07:05:53;;;;;;;2.50;0.85;;;23.90;58.20;;;;;;5082167;28;20317;-60
2023/08/03 07:08:19;;;;;;;2.72;0.90;;;23.90;58.10;;;;;;5074812;28;20047;-60
2023/08/03 07:10:45;;;;;;;2.20;0.93;;;23.90;58.10;;;;;;5083988;28;20428;-59
2023/08/03 07:13:11;;;;;;;1.67;1.00;;;23.90;58.10;;;;;;5084510;28;20052;-61
2023/08/03 07:15:37;;;;;;;2.92;1.10;;;24.00;58.10;;;;;;5085961;28;20024;-60
2023/08/03 07:18:04;;;;;;;4.70;1.35;;;23.90;58.10;;;;;;5070431;28;20038;-60
2023/08/03 07:20:30;;;;;;;2.90;1.20;;;23.90;58.00;;;;;;5083357;28;20035;-60
2023/08/03 07:22:57;;;;;;;3.03;1.15;;;24.00;58.10;;;;;;5083153;28;20032;-60
2023/08/03 07:25:24;;;;;;;2.47;1.20;;;24.00;58.10;;;;;;5077705;28;20079;-59
2023/08/03 07:27:51;;;;;;;2.75;1.13;;;23.90;58.00;;;;;;5081891;28;20130;-60
2023/08/03 07:30:17;;;;;;;3.67;1.10;;;24.00;58.10;;;;;;5070954;28;20107;-62
2023/08/03 07:32:43;;;;;;;3.50;1.13;;;24.00;58.10;;;;;;5076470;28;20047;-60
2023/08/03 07:35:09;;;;;;;1.55;0.80;;;24.00;58.10;;;;;;5076930;28;20020;-60
2023/08/03 07:37:35;;;;;;;3.10;1.02;;;23.90;58.00;;;;;;5083487;28;20035;-60
2023/08/03 07:40:01;;;;;;;3.28;0.85;;;23.90;58.00;;;;;;5078520;28;20114;-61
2023/08/03 07:42:27;;;;;;;2.55;0.80;;;23.90;58.00;;;;;;5080695;28;20020;-59
2023/08/03 07:44:53;;;;;;;1.75;0.70;;;24.00;58.10;;;;;;5065495;28;20067;-62
2023/08/03 07:47:20;;;;;;;2.20;0.85;;;23.90;58.00;;;;;;5082454;28;20051;-60
2023/08/03 07:49:46;;;;;;;2.15;0.90;;;24.00;58.00;;;;;;5087521;28;20416;-60
2023/08/03 07:52:12;;;;;;;1.20;0.60;;;24.00;58.00;;;;;;5069349;28;20075;-60
2023/08/03 07:54:38;;;;;;;1.40;0.65;;;24.00;58.00;;;;;;5071652;28;20354;-60
2023/08/03 07:57:04;;;;;;;1.95;0.70;;;23.90;58.00;;;;;;5072033;28;20029;-60
2023/08/03 07:59:30;;;;;;;2.03;1.05;;;24.00;58.10;;;;;;5072179;28;20029;-59
2023/08/03 08:01:56;;;;;;;2.45;0.70;;;24.00;58.10;;;;;;5071275;28;20033;-59
2023/08/03 08:04:22;;;;;;;1.52;0.90;;;24.00;58.10;;;;;;5072089;28;20040;-62
2023/08/03 08:06:48;;;;;;;1.75;0.90;;;24.00;58.10;;;;;;5069632;28;20048;-59
2023/08/03 08:09:14;;;;;;;1.33;0.52;;;24.00;58.10;;;;;;5074799;28;20028;-60
2023/08/03 08:11:40;;;;;;;1.90;0.98;;;24.00;58.10;;;;;;5072316;28;20036;-60
2023/08/03 08:14:05;;;;;;;2.05;0.93;;;24.00;58.10;;;;;;5072370;28;20036;-63
2023/08/03 08:16:31;;;;;;;1.52;0.90;;;24.00;58.10;;;;;;5071914;28;20462;-59
2023/08/03 08:18:57;;;;;;;2.10;0.85;;;24.00;58.10;;;;;;5072800;28;20096;-61
2023/08/03 08:21:23;;;;;;;1.00;0.60;;;24.00;58.10;;;;;;5070171;28;20103;-62
2023/08/03 08:23:50;;;;;;;1.33;0.50;;;24.00;58.20;;;;;;5092172;28;20073;-62
2023/08/03 08:26:17;;;;;;;2.25;0.60;;;24.00;58.20;;;;;;5088770;28;20105;-61
2023/08/03 08:28:45;;;;;;;1.98;0.60;;;24.00;58.20;;;;;;5091782;28;20028;-62
2023/08/03 08:31:11;;;;;;;2.40;0.80;;;24.00;58.20;;;;;;5092360;28;20123;-61
2023/08/03 08:33:37;;;;;;;1.70;0.50;;;24.00;58.20;;;;;;5091958;28;20024;-61
2023/08/03 08:36:04;;;;;;;2.08;0.90;;;24.00;58.20;;;;;;5056748;28;20343;-61
2023/08/03 08:38:31;;;;;;;2.33;0.77;;;24.00;58.30;;;;;;5072012;28;20086;-61
2023/08/03 08:41:00;;;;;;;1.73;0.90;;;24.00;58.30;;;;;;5071490;28;20108;-61
2023/08/03 08:43:27;;;;;;;0.80;0.50;;;24.00;58.30;;;;;;5092054;28;20047;-61
2023/08/03 08:45:53;;;;;;;2.10;0.70;;;24.00;58.90;;;;;;5083879;28;20084;-60
2023/08/03 08:48:19;;;;;;;1.40;0.57;;;24.00;58.40;;;;;;5053105;28;20413;-62
2023/08/03 08:50:46;;;;;;;2.67;0.90;;;24.00;58.40;;;;;;5091834;28;20059;-61
2023/08/03 08:53:16;;;;;;;2.25;0.70;;;24.00;58.40;;;;;;5089817;28;20047;-61
2023/08/03 08:55:42;;;;;;;2.55;0.65;;;24.00;58.40;;;;;;5090885;28;20043;-60
2023/08/03 08:58:08;;;;;;;1.67;0.68;;;24.00;58.50;;;;;;5091875;28;20040;-61
2023/08/03 09:00:45;;;;;;;2.35;0.80;;;24.00;58.50;;;;;;5069331;28;20115;-61
2023/08/03 09:03:12;;;;;;;1.10;0.65;;;24.00;58.60;;;;;;5071741;28;20032;-60
2023/08/03 09:05:39;;;;;;;1.65;0.52;;;24.00;58.60;;;;;;5075878;28;20311;-60
2023/08/03 09:08:07;;;;;;;1.02;0.60;;;24.00;58.60;;;;;;5078604;28;20127;-60
2023/08/03 09:10:51;;;;;;;1.85;0.60;;;24.00;58.60;;;;;;5072018;28;20099;-62
2023/08/03 09:13:37;;;;;;;2.03;0.80;;;24.10;58.80;;;;;;5086539;28;20029;-60
2023/08/03 09:16:03;;;;;;;1.85;0.80;;;24.10;58.80;;;;;;5091733;28;20036;-60
2023/08/03 09:18:31;;;;;;;1.15;0.65;;;24.10;58.80;;;;;;5072386;28;20036;-60
2023/08/03 09:21:16;;;;;;;1.70;0.60;;;24.10;58.90;;;;;;5063152;28;20051;-62
2023/08/03 09:23:42;;;;;;;1.48;0.65;;;24.10;58.90;;;;;;5073603;28;20403;-60
2023/08/03 09:26:09;;;;;;;2.30;0.70;;;24.10;58.90;;;;;;5089812;28;20048;-61
2023/08/03 09:28:43;;;;;;;1.98;0.40;;;24.10;58.90;;;;;;5073013;28;20028;-61
2023/08/03 09:31:10;;;;;;;2.03;0.60;;;24.10;59.00;;;;;;5085326;28;20036;-62
2023/08/03 09:33:37;;;;;;;1.58;0.70;;;24.20;59.00;;;;;;5069669;28;20092;-58
2023/08/03 09:36:14;;;;;;;1.63;0.70;;;24.20;59.10;;;;;;5079154;28;20047;-61
2023/08/03 09:38:43;;;;;;;2.10;0.73;;;24.20;59.10;;;;;;5077224;28;20055;-62
2023/08/03 09:41:10;;;;;;;1.40;0.60;;;24.20;59.20;;;;;;5077505;28;20099;-60
2023/08/03 09:43:39;;;;;;;1.83;0.60;;;24.20;59.20;;;;;;5062313;28;20074;-60
2023/08/03 09:46:06;;;;;;;1.73;0.80;;;24.20;59.20;;;;;;5068126;28;20131;-62
2023/08/03 09:48:32;;;;;;;1.77;0.70;;;24.30;59.30;;;;;;5049481;28;20128;-60
2023/08/03 09:50:59;;;;;;;1.73;0.90;;;24.30;59.30;;;;;;5065526;28;20146;-60
2023/08/03 09:53:29;;;;;;;1.65;0.68;;;24.30;59.30;;;;;;5069256;28;20089;-58
2023/08/03 09:56:00;;;;;;;1.45;0.70;;;24.30;59.30;;;;;;5072821;28;20116;-60
2023/08/03 09:58:38;;;;;;;1.30;0.60;;;24.30;59.30;;;;;;5070448;28;20135;-61
2023/08/03 10:01:07;;;;;;;1.38;0.70;;;24.40;59.30;;;;;;5066534;28;20032;-62
2023/08/03 10:03:35;;;;;;;1.60;0.90;;;24.40;59.30;;;;;;5062545;28;20112;-62
2023/08/03 10:06:23;;;;;;;2.25;0.82;;;24.40;59.30;;;;;;5075582;28;20417;-62
2023/08/03 10:09:12;;;;;;;1.73;0.77;;;24.40;59.30;;;;;;5066339;28;20481;-62
2023/08/03 10:11:43;;;;;;;1.70;0.80;;;24.40;59.30;;;;;;5054524;28;20027;-59
2023/08/03 10:14:10;;;;;;;2.22;0.80;;;24.40;59.30;;;;;;5066518;28;20037;-62
2023/08/03 10:16:40;;;;;;;1.85;0.80;;;24.40;59.90;;;;;;5070490;28;20028;-61
2023/08/03 10:19:06;;;;;;;1.65;0.75;;;24.40;59.20;;;;;;5063317;28;20039;-60
2023/08/03 10:21:34;;;;;;;1.45;0.70;;;24.40;59.20;;;;;;5068796;28;20024;-60
2023/08/03 10:24:14;;;;;;;2.30;0.85;;;24.40;59.20;;;;;;5047079;28;20362;-60
2023/08/03 10:26:42;;;;;;;2.17;0.80;;;24.50;59.10;;;;;;5071272;28;20036;-61
2023/08/03 10:29:08;;;;;;;1.60;0.80;;;24.50;59.20;;;;;;5070065;28;20452;-61
2023/08/03 10:31:54;;;;;;;1.33;0.65;;;24.50;59.20;;;;;;5071797;28;20031;-62
2023/08/03 10:34:28;;;;;;;2.22;0.85;;;24.50;59.20;;;;;;5071748;28;20155;-62
2023/08/03 10:36:56;;;;;;;1.20;0.60;;;24.50;59.30;;;;;;5064428;28;20036;-60
2023/08/03 10:39:49;;;;;;;2.42;0.77;;;24.60;59.30;;;;;;5071663;28;20160;-63
2023/08/03 10:42:34;;;;;;;2.08;0.90;;;24.60;59.40;;;;;;5066226;28;20032;-61
2023/08/03 10:45:22;;;;;;;1.00;0.70;;;24.60;59.40;;;;;;5065532;28;20143;-61
2023/08/03 10:47:48;;;;;;;1.40;0.68;;;24.60;59.50;;;;;;5053895;28;20354;-60
2023/08/03 10:50:14;;;;;;;1.42;0.60;;;24.60;59.50;;;;;;5063736;28;20064;-60
2023/08/03 10:52:40;;;;;;;1.83;0.80;;;24.60;59.50;;;;;;5060151;28;20765;-60
2023/08/03 10:55:26;;;;;;;1.33;0.50;;;24.60;59.40;;;;;;5076809;28;20127;-61
2023/08/03 10:57:55;;;;;;;2.00;0.70;;;24.60;59.20;;;;;;5064823;28;20036;-63
2023/08/03 11:00:21;;;;;;;2.00;0.63;;;24.60;59.00;;;;;;5064536;28;20234;-61
2023/08/03 11:02:47;;;;;;;1.65;0.63;;;24.60;58.90;;;;;;5069888;28;20029;-61
2023/08/03 11:05:13;;;;;;;1.40;0.70;;;24.60;58.80;;;;;;5067847;28;20126;-63
2023/08/03 11:07:42;;;;;;;1.52;0.68;;;24.60;58.60;;;;;;5062894;28;20150;-64
2023/08/03 11:10:10;;;;;;;1.90;0.77;;;24.60;58.50;;;;;;5064924;28;20434;-63
2023/08/03 11:12:37;;;;;;;1.52;0.63;;;24.60;58.50;;;;;;5063052;28;20054;-62
2023/08/03 11:15:05;;;;;;;1.20;0.40;;;24.60;58.40;;;;;;5067978;28;20040;-60
2023/08/03 11:17:33;;;;;;;2.35;0.80;;;24.60;58.40;;;;;;5063901;28;20044;-64
2023/08/03 11:20:03;;;;;;;4.03;0.90;;;24.60;58.50;;;;;;5063050;28;22198;-62
2023/08/03 11:22:30;;;;;;;1.77;0.80;;;24.70;58.70;;;;;;5055975;28;20085;-61
2023/08/03 11:24:57;;;;;;;1.50;0.70;;;24.70;58.70;;;;;;5061369;28;20036;-63
2023/08/03 11:27:23;;;;;;;1.95;0.50;;;24.70;58.70;;;;;;5063763;28;20067;-63
2023/08/03 11:29:53;;;;;;;1.85;0.57;;;24.70;58.60;;;;;;5067973;28;20292;-62
2023/08/03 11:32:32;;;;;;;3.63;0.68;;;24.70;58.60;;;;;;5063045;28;20107;-62
2023/08/03 11:34:59;;;;;;;1.95;0.60;;;24.70;58.60;;;;;;5061595;28;20365;-64
2023/08/03 11:37:29;;;;;;;1.75;0.80;;;24.70;58.60;;;;;;5071165;28;20076;-65
2023/08/03 11:39:54;;;;;;;2.10;0.80;;;24.70;58.60;;;;;;5067654;28;20285;-62
2023/08/03 11:42:21;;;;;;;2.03;0.70;;;24.70;58.60;;;;;;5069640;28;20036;-64
2023/08/03 11:44:47;;;;;;;0.95;0.52;;;24.70;58.60;;;;;;5064008;28;20071;-63
2023/08/03 11:47:13;;;;;;;2.25;0.80;;;24.70;58.70;;;;;;5065448;28;20359;-65
2023/08/03 11:49:39;;;;;;;1.02;0.50;;;24.70;58.70;;;;;;5066621;28;20028;-64
2023/08/03 11:52:05;;;;;;;1.13;0.50;;;24.70;58.80;;;;;;5064436;28;20024;-62
2023/08/03 11:54:37;;;;;;;1.00;0.60;;;24.70;58.80;;;;;;5046116;28;20033;-62
2023/08/03 11:59:49;;;;;;;3.72;0.70;;;24.70;58.80;;;;;;5066893;28;20086;-64
2023/08/03 12:02:16;;;;;;;1.10;0.50;;;24.70;58.80;;;;;;5064328;28;20282;-63
2023/08/03 12:04:42;;;;;;;2.35;0.70;;;24.70;58.80;;;;;;5060397;28;20036;-62
2023/08/03 12:07:08;;;;;;;3.63;0.70;;;24.70;58.80;;;;;;5060096;28;20068;-60
2023/08/03 12:09:39;;;;;;;2.35;0.60;;;24.70;58.80;;;;;;5064578;28;20052;-62
2023/08/03 12:12:07;;;;;;;2.90;0.98;;;24.70;59.00;;;;;;5047797;28;20057;-64
2023/08/03 12:14:34;;;;;;;1.80;0.60;;;24.70;59.10;;;;;;5064401;28;20062;-61
2023/08/03 12:17:00;;;;;;;2.05;0.60;;;24.80;59.20;;;;;;5068536;28;20109;-61
2023/08/03 12:19:33;;;;;;;6.95;1.10;;;24.80;59.20;;;;;;5059230;28;20201;-64
2023/08/03 12:22:01;;;;;;;1.37;0.50;;;24.80;59.20;;;;;;5067473;28;20046;-65
2023/08/03 12:24:27;;;;;;;2.47;0.57;;;24.80;59.20;;;;;;5064491;28;20734;-64
2023/08/03 12:26:52;;;;;;;4.38;0.63;;;24.80;59.10;;;;;;5056324;28;20217;-67
2023/08/03 12:29:18;;;;;;;2.00;0.65;;;24.90;59.00;;;;;;5091827;28;20043;-66
2023/08/03 12:31:44;;;;;;;3.00;0.60;;;24.90;58.90;;;;;;5089372;28;20444;-66
2023/08/03 12:34:10;;;;;;;0.70;0.50;;;24.90;58.80;;;;;;5092117;28;20071;-67
2023/08/03 12:36:37;;;;;;;1.45;0.55;;;24.90;58.80;;;;;;5092088;28;20089;-66
2023/08/03 12:39:07;;;;;;;1.00;0.30;;;24.90;58.70;;;;;;5092226;28;20043;-66
2023/08/03 12:41:33;;;;;;;1.10;0.50;;;24.80;58.60;;;;;;5091918;28;20028;-66
2023/08/03 12:43:58;;;;;;;0.70;0.30;;;24.90;58.60;;;;;;5091840;28;20090;-66
2023/08/03 12:46:27;;;;;;;1.23;0.50;;;24.90;58.60;;;;;;5088495;28;20044;-66
2023/08/03 12:48:53;;;;;;;1.52;0.40;;;24.90;58.50;;;;;;5074504;28;20140;-66
2023/08/03 12:51:19;;;;;;;1.13;0.28;;;24.90;58.50;;;;;;5051748;28;20126;-66
2023/08/03 12:53:49;;;;;;;0.57;0.32;;;24.90;58.40;;;;;;5051541;28;20124;-66